createdAt,value
2022-10-18T00:05:09.329Z,5.10
2022-10-18T00:11:12.109Z,5.75
2022-10-18T00:17:14.092Z,4.11
2022-10-18T00:23:15.927Z,4.73
2022-10-18T00:29:18.133Z,4.57
2022-10-18T00:35:30.027Z,4.86
2022-10-18T00:41:38.692Z,4.66
2022-10-18T00:47:41.935Z,4.10
2022-10-18T00:53:44.001Z,3.92
2022-10-18T00:59:47.046Z,4.81
2022-10-18T01:05:49.293Z,4.79
2022-10-18T01:12:18.045Z,5.40
2022-10-18T01:18:47.914Z,4.78
2022-10-18T01:25:17.925Z,4.47
2022-10-18T01:31:48.234Z,4.09
2022-10-18T01:37:52.509Z,5.06
2022-10-18T01:44:02.074Z,4.60
2022-10-18T01:50:07.158Z,4.26
2022-10-18T01:56:46.483Z,4.28
2022-10-18T02:03:02.613Z,5.00
2022-10-18T02:09:19.539Z,5.05
2022-10-18T02:15:27.422Z,4.74
2022-10-18T02:21:30.539Z,5.03
2022-10-18T02:27:32.717Z,3.93
2022-10-18T02:34:12.420Z,4.48
2022-10-18T02:40:20.457Z,4.19
2022-10-18T02:46:23.231Z,3.50
2022-10-18T02:52:25.177Z,3.99
2022-10-18T02:58:26.990Z,4.65
2022-10-18T03:10:30.822Z,3.48
2022-10-18T03:16:34.444Z,4.19
2022-10-18T03:22:36.310Z,3.23
2022-10-18T03:28:38.214Z,3.80
2022-10-18T03:34:40.366Z,3.85
2022-10-18T03:40:42.472Z,3.85
2022-10-18T03:46:47.280Z,4.18
2022-10-18T03:52:49.185Z,3.49
2022-10-18T03:58:51.287Z,3.66
2022-10-18T04:04:53.482Z,3.48
2022-10-18T04:11:09.560Z,3.12
2022-10-18T04:36:25.403Z,1.93
2022-10-18T04:49:02.139Z,2.82
2022-10-18T05:20:27.636Z,3.83
2022-10-18T05:26:42.397Z,3.88
2022-10-18T06:36:45.839Z,6.31
2022-10-18T06:49:19.298Z,6.95
2022-10-18T06:55:39.086Z,7.53
2022-10-18T07:14:58.338Z,7.93
2022-10-18T10:20:38.685Z,20.33
2022-10-18T10:46:58.998Z,20.56
2022-10-18T10:53:24.815Z,21.48
2022-10-18T11:26:59.256Z,22.12
2022-10-18T11:46:26.509Z,22.55
2022-10-18T11:53:07.898Z,22.58
2022-10-18T12:05:59.027Z,21.81
2022-10-18T12:12:37.901Z,21.97
2022-10-18T12:18:58.193Z,22.31
2022-10-18T12:25:13.958Z,22.57
2022-10-18T12:31:57.966Z,22.79
2022-10-18T12:38:19.588Z,22.60
2022-10-18T12:44:44.918Z,22.65
2022-10-18T12:50:59.918Z,22.76
2022-10-18T13:03:27.336Z,22.51
2022-10-18T13:09:42.994Z,22.39
2022-10-18T13:16:12.588Z,22.02
2022-10-18T13:22:55.732Z,22.26
2022-10-18T13:29:25.036Z,22.27
2022-10-18T13:48:48.030Z,21.48
2022-10-18T14:15:31.948Z,20.90
2022-10-18T14:21:45.193Z,20.51
2022-10-18T14:28:31.364Z,20.08
2022-10-18T14:34:48.045Z,20.51
2022-10-18T14:47:46.594Z,19.20
2022-10-18T14:54:06.774Z,18.99
2022-10-18T15:00:18.975Z,18.97
2022-10-18T15:06:24.817Z,18.74
2022-10-18T15:13:08.799Z,18.90
2022-10-18T20:03:33.278Z,8.78
2022-10-18T20:29:52.906Z,9.43
2022-10-18T22:43:55.538Z,7.01
2022-10-18T22:49:59.167Z,7.07
2022-10-18T23:08:36.562Z,5.21
